Date,TemperatureHighF,TemperatureAvgF,TemperatureLowF,DewpointHighF,DewpointAvgF,DewpointLowF,HumidityHigh,HumidityAvg,HumidityLow,PressureMaxIn,PressureMinIn,WindSpeedMaxMPH,WindSpeedAvgMPH,GustSpeedMaxMPH,PrecipitationSumIn
2012-1-25,41,39,38,40,38,37,98,97,93,30.30,30.03,2,0,9,0.17
2012-1-26,45,38,32,44,35,30,98,89,70,30.63,29.96,2,0,11,0.13
2012-1-27,40,34,29,33,31,28,99,88,63,30.66,30.54,1,0,3,0.03
2012-1-28,51,41,31,33,28,17,97,64,30,30.54,30.12,1,0,8,0.00
2012-1-29,53,47,42,47,44,33,98,91,50,30.12,29.80,2,1,12,1.00
2012-1-30,45,42,41,44,42,40,99,98,96,30.09,29.84,1,0,5,0.79
2012-1-31,46,42,41,43,40,39,98,93,80,30.11,29.94,2,0,5,0.07
2012-2-1,44,40,35,43,40,35,100,98,90,30.50,29.89,1,0,5,0.91
2012-2-2,47,38,32,42,36,32,100,95,76,30.52,30.27,1,0,2,0.01
2012-2-3,55,41,33,40,33,25,100,76,34,30.28,30.09,1,0,7,0.00
2012-2-4,57,43,33,32,29,26,89,60,32,30.24,30.16,2,0,7,0.00
2012-2-5,55,43,36,36,31,26,92,65,43,30.27,30.18,1,0,2,0.00
2012-2-6,59,44,31,34,27,20,96,59,24,30.18,29.96,2,0,9,0.00
2012-2-7,59,50,45,30,26,23,53,39,26,30.03,29.88,2,1,10,0.00
2012-2-8,48,46,42,45,40,25,95,82,42,30.31,30.03,2,0,8,0.03
2012-2-9,49,46,41,48,45,40,98,96,89,30.31,30.08,1,0,5,0.32
2012-2-10,57,48,44,49,45,43,99,89,64,30.08,29.95,2,0,7,0.20
2012-2-11,47,44,41,44,42,39,98,95,85,30.19,30.08,2,0,9,0.22
2012-2-12,47,42,39,41,40,38,98,91,74,30.16,29.93,2,0,5,0.01
2012-2-13,44,41,39,43,40,38,99,98,96,30.08,29.95,0,0,2,0.10
2012-2-14,41,38,32,39,37,32,99,98,93,30.22,29.95,1,0,4,0.17
2012-2-15,44,38,35,40,36,34,100,96,79,30.42,30.22,1,0,5,0.01
2012-2-16,42,39,35,42,38,34,99,97,91,30.35,30.24,3,0,5,0.18
2012-2-17,50,42,38,45,41,38,100,95,76,30.30,29.84,3,0,12,0.44
2012-2-18,40,39,37,40,38,36,99,95,89,30.09,29.92,4,2,16,0.93
2012-2-19,40,36,33,39,35,32,99,98,93,30.14,29.96,1,0,4,0.79
2012-2-20,43,39,32,43,38,32,99,96,89,30.06,29.92,1,0,6,0.32
2012-2-21,47,45,43,47,45,43,100,99,99,30.10,30.03,2,0,11,2.97
2012-2-22,48,43,39,46,40,35,99,88,69,30.32,29.97,4,1,13,1.11
2012-2-23,45,40,36,38,36,35,96,88,69,30.42,30.32,2,0,5,0.01
2012-2-24,44,41,36,43,39,35,98,95,86,30.32,29.60,2,0,11,0.46
2012-2-25,42,36,34,41,36,33,99,98,95,30.20,29.59,2,0,11,0.48
2012-2-26,40,33,27,34,31,27,99,92,61,30.22,30.16,1,0,5,0.08
2012-2-27,42,32,24,31,28,21,99,86,46,30.25,30.01,2,0,4,0.01
2012-2-28,44,36,30,33,29,25,96,75,46,30.01,29.50,4,1,14,0.02
2012-2-29,37,34,32,36,33,31,99,97,92,29.81,29.54,3,0,9,0.53
2012-3-1,38,34,32,36,34,32,99,98,92,30.37,29.81,1,0,4,0.75
2012-3-2,39,37,33,39,36,33,100,99,97,30.44,30.36,1,0,4,0.85
2012-3-3,49,44,39,49,43,39,100,98,94,30.39,30.35,1,0,6,0.70
2012-3-4,48,45,43,46,43,41,99,94,87,30.38,29.99,3,0,10,0.06
2012-3-5,45,38,32,42,37,32,99,95,87,29.99,29.73,3,1,14,0.47
2012-3-6,41,33,28,37,31,25,99,91,62,30.40,29.91,1,0,5,0.37
2012-3-7,44,34,25,34,28,25,99,82,51,30.52,30.40,2,0,5,0.02
2012-3-8,60,44,30,44,37,29,100,80,50,30.43,30.19,2,0,5,0.01
2012-3-9,48,44,40,45,41,37,98,89,74,30.25,29.98,2,0,9,0.64
2012-3-10,43,42,41,43,41,40,99,98,95,29.98,29.67,2,0,6,0.67
2012-3-11,43,40,35,41,37,31,98,92,78,29.79,29.59,4,1,13,0.42
2012-3-12,41,38,34,40,36,31,98,93,73,29.72,29.36,4,1,13,1.09
2012-3-13,38,35,33,37,34,32,99,96,88,29.91,29.38,3,1,11,0.60
2012-3-14,41,37,32,39,35,30,99,94,77,29.91,29.73,3,1,11,0.25
2012-3-15,49,44,40,48,43,40,99,96,92,29.73,29.51,4,1,11,0.74
2012-3-16,49,41,37,42,38,35,98,90,70,29.72,29.40,4,1,12,0.16
2012-3-17,43,37,33,40,36,32,99,96,86,29.69,29.36,2,0,5,0.57
2012-3-18,40,35,33,38,35,32,99,97,90,29.87,29.65,1,0,3,0.54
2012-3-19,44,37,30,36,34,30,99,89,64,29.94,29.66,2,0,7,0.20
2012-3-20,45,40,37,40,36,-100,98,87,66,29.98,29.54,3,1,11,0.13
2012-3-21,48,40,32,36,32,20,98,76,34,30.05,29.82,2,0,7,0.05
2012-3-22,47,38,33,39,33,-100,98,84,50,30.08,29.82,3,-7,8,0.18
2012-3-23,54,40,28,36,31,27,99,74,38,30.10,29.99,3,0,7,0.01
2012-3-24,61,44,32,41,34,29,93,72,34,30.10,29.92,2,0,4,0.00
2012-3-25,57,45,34,44,39,33,96,80,56,29.92,29.73,3,0,6,0.00
2012-3-26,49,44,38,44,42,36,98,92,74,29.84,29.74,2,0,7,0.25
2012-3-27,60,49,40,45,40,35,91,71,42,29.77,29.53,4,1,14,0.06
2012-3-28,50,45,40,45,42,39,97,88,67,29.83,29.54,4,1,16,0.30
2012-3-29,45,43,40,44,42,39,98,96,94,29.73,29.44,3,1,11,0.99
2012-3-30,47,42,35,46,41,35,99,97,91,29.81,29.48,4,0,11,0.76
2012-3-31,46,39,35,45,39,35,99,98,95,29.75,29.42,1,0,6,0.57
2012-4-1,49,41,37,43,39,36,99,93,72,30.22,29.52,3,1,11,0.74
2012-4-2,61,48,39,44,38,31,99,72,36,30.27,29.91,5,1,13,0.32
2012-4-3,53,45,36,45,38,31,97,77,45,30.01,29.75,2,0,7,0.47
2012-4-4,50,40,35,40,36,33,99,87,56,30.12,29.98,2,0,6,0.03
2012-4-5,48,40,33,42,36,32,98,88,69,30.19,30.12,1,0,6,0.05
2012-4-6,46,39,34,41,37,33,99,93,74,30.33,30.19,3,0,10,0.13
2012-4-7,59,45,30,38,31,24,99,65,27,30.34,30.21,3,1,13,0.01
2012-4-8,68,56,41,37,26,22,73,34,18,30.23,30.01,3,1,9,0.00
2012-4-9,69,56,41,43,36,28,80,50,27,30.03,29.85,2,0,6,0.00
2012-4-10,67,54,41,47,42,38,91,67,37,29.85,29.72,3,0,8,0.00
2012-4-11,52,48,43,48,45,41,98,91,77,29.80,29.66,1,0,3,0.40
2012-4-12,61,47,38,48,43,37,99,89,45,29.85,29.72,3,0,10,0.29
2012-4-13,58,46,34,47,40,34,99,82,52,29.93,29.84,2,0,9,0.01
2012-4-14,60,47,36,45,39,-100,99,76,46,30.17,29.93,2,0,7,0.01
2012-4-15,61,50,43,42,39,34,89,69,40,30.22,30.01,2,0,7,0.00
2012-4-16,54,47,41,51,44,38,97,90,67,30.23,29.89,3,1,19,0.20
2012-4-17,50,44,39,43,40,38,99,88,65,30.25,30.02,2,0,6,0.15
2012-4-18,53,46,42,45,43,40,97,88,71,30.10,29.98,3,0,10,0.10
2012-4-19,57,46,37,49,43,37,99,90,55,30.11,30.01,2,0,7,0.75
2012-4-20,56,48,42,49,45,40,98,89,63,30.27,30.01,3,0,11,1.32
2012-4-21,67,52,37,51,45,36,99,80,46,30.22,30.02,2,0,5,0.01
2012-4-22,73,58,45,56,49,44,98,76,46,30.03,29.89,2,0,6,0.00
2012-4-23,72,58,47,56,51,46,99,80,52,29.93,29.83,3,0,5,0.00
2012-4-24,53,51,48,52,50,47,98,96,93,29.94,29.83,1,0,4,0.17
2012-4-25,59,54,50,58,53,49,99,97,93,29.85,29.62,1,0,6,0.55
2012-4-26,50,46,43,49,46,42,99,97,85,30.01,29.62,2,0,5,1.13
2012-4-27,55,47,42,44,42,37,97,84,53,30.32,30.05,2,0,9,0.01
2012-4-28,61,51,44,50,44,-100,95,79,56,30.32,30.21,2,0,6,0.01
2012-4-29,58,52,49,52,49,48,98,90,73,30.22,29.81,3,0,6,0.08
2012-4-30,53,47,40,50,45,39,98,93,79,29.92,29.67,4,1,15,1.63
2012-5-1,50,44,39,46,42,38,98,94,76,29.99,29.92,3,0,7,1.04
2012-5-2,54,45,39,46,41,36,99,87,50,30.04,29.81,2,0,8,0.36
2012-5-3,54,47,43,51,46,41,98,95,84,29.97,29.62,1,0,3,0.66
2012-5-4,49,44,40,47,42,39,99,96,86,30.38,29.97,2,0,6,1.12
2012-5-5,54,45,38,45,40,-100,99,87,59,30.54,30.38,1,0,4,0.16
2012-5-6,64,50,35,48,42,35,99,77,47,30.54,30.40,3,0,8,0.01
2012-5-7,74,57,41,55,46,40,99,72,37,30.41,30.12,3,0,6,0.00
2012-5-8,66,54,45,51,45,35,96,74,53,30.19,30.11,3,1,8,0.00
2012-5-9,56,47,40,39,36,27,87,66,34,30.37,30.18,3,1,11,0.00
2012-5-10,57,46,39,40,35,29,87,67,35,30.46,30.35,3,0,7,0.00
2012-5-11,66,49,34,44,38,33,97,68,36,30.37,30.21,3,1,8,0.00
2012-5-12,76,56,40,49,42,-100,95,64,31,30.25,30.14,3,0,6,0.00
2012-5-13,78,62,45,53,46,41,94,61,34,30.20,30.06,2,0,7,0.00
2012-5-14,80,63,47,56,48,41,96,62,34,30.09,29.99,2,0,6,0.00
2012-5-15,74,61,49,55,48,39,94,65,40,30.11,30.05,2,0,6,0.00
2012-5-16,67,56,44,48,43,39,90,64,42,30.11,30.04,3,0,8,0.00
2012-5-17,63,52,42,46,41,38,96,69,42,30.08,30.00,3,1,8,0.00
2012-5-18,60,50,44,46,42,39,89,73,50,30.20,30.07,3,1,8,0.00
2012-5-19,67,53,39,46,39,-100,98,65,32,30.15,30.05,3,0,6,0.00
2012-5-20,60,55,52,55,49,41,98,82,61,30.05,29.96,1,0,4,0.56
2012-5-21,58,54,51,57,54,49,99,97,95,29.96,29.81,2,0,7,0.84
2012-5-22,52,49,47,50,48,45,98,95,89,29.96,29.90,2,0,5,0.70
2012-5-23,52,48,46,51,48,45,99,98,94,30.03,29.93,2,0,6,1.54
2012-5-24,61,50,44,53,47,42,99,89,62,30.01,29.82,2,0,7,0.59
2012-5-25,70,53,42,56,49,42,99,87,51,29.94,29.87,2,0,6,0.16
2012-5-26,74,59,44,54,48,42,99,72,37,29.95,29.84,2,1,9,0.16
2012-5-27,63,55,50,51,48,45,95,78,54,30.09,29.96,2,0,6,0.00
2012-5-28,57,52,46,54,49,44,97,91,82,30.15,30.06,2,0,5,0.20
2012-5-29,60,51,44,48,44,42,98,80,55,30.20,30.14,1,0,5,0.01
2012-5-30,66,55,47,52,47,43,97,76,47,30.27,30.16,2,0,11,0.10
2012-5-31,59,56,53,58,55,52,99,97,95,30.16,30.03,1,0,7,0.45
2012-6-1,65,58,53,62,57,51,99,96,84,30.03,29.90,2,0,11,0.43
2012-6-2,62,53,49,55,49,-100,99,89,69,29.99,29.87,2,0,6,0.05
2012-6-3,61,52,44,48,44,41,96,77,47,30.02,29.92,2,0,5,0.01
2012-6-4,54,49,44,51,47,42,97,93,86,29.92,29.76,1,0,4,0.05
2012-6-5,52,48,46,50,47,45,98,95,86,30.23,29.83,1,0,4,0.44
2012-6-6,58,50,44,48,44,41,99,83,58,30.23,30.04,2,0,7,0.09
2012-6-7,56,51,46,54,48,42,97,91,80,30.04,29.84,2,0,8,0.55
2012-6-8,59,50,46,49,46,42,98,88,57,30.06,29.97,4,0,10,0.25
2012-6-9,58,50,45,51,47,44,99,90,71,30.26,30.06,2,0,5,0.20
2012-6-10,65,54,47,52,48,45,98,80,54,30.30,30.24,2,0,5,0.02
2012-6-11,74,59,44,56,50,43,99,73,44,30.24,30.09,3,1,9,0.01
2012-6-12,63,57,52,57,54,49,98,89,62,30.09,30.00,3,0,8,1.39
2012-6-13,56,51,47,54,50,46,99,95,85,30.22,30.02,3,0,7,0.46
2012-6-14,58,51,46,52,47,45,97,87,73,30.19,30.13,2,0,8,0.01
2012-6-15,71,57,41,54,48,41,100,75,44,30.22,30.16,2,0,6,0.00
2012-6-16,66,60,57,65,56,-100,98,89,74,30.16,29.96,1,0,6,0.23
2012-6-17,61,55,51,59,55,49,99,98,91,29.96,29.90,1,0,5,0.98
2012-6-18,60,52,48,54,50,48,100,92,74,30.06,29.87,2,0,8,1.27
2012-6-19,65,54,48,56,50,47,99,89,62,30.19,30.06,2,0,5,0.19
2012-6-20,74,60,44,58,51,44,100,77,45,30.19,29.94,3,0,7,0.01
2012-6-21,72,61,50,60,53,48,98,78,62,29.96,29.78,2,0,6,0.00
2012-6-22,58,53,50,53,51,47,99,93,77,29.84,29.72,1,0,6,0.74
2012-6-23,60,53,48,57,52,47,99,96,89,29.97,29.72,3,0,9,1.33
2012-6-24,66,53,44,55,49,44,100,86,59,30.09,29.95,2,0,6,0.02
2012-6-25,63,54,45,56,50,45,99,88,69,30.06,29.95,2,0,5,0.01
2012-6-26,59,52,49,54,51,48,98,94,80,30.09,29.94,1,0,5,0.01
2012-6-27,72,59,46,55,51,46,100,77,45,30.10,29.93,2,0,5,0.01
2012-6-28,77,63,50,58,52,49,96,72,41,30.04,29.92,3,0,9,0.01
2012-6-29,71,62,56,60,57,55,97,87,66,30.09,30.02,2,0,7,0.02
2012-6-30,67,61,54,64,60,53,99,95,87,30.02,29.93,1,0,5,0.29
2012-7-1,63,56,51,56,53,47,99,89,74,30.09,29.98,2,0,6,0.03
2012-7-2,65,56,50,56,51,47,98,85,62,30.06,29.89,2,0,5,0.12
2012-7-3,55,54,54,54,53,53,98,98,98,29.89,29.89,0,0,1,0.15
2012-7-4,68,60,48,55,52,45,100,75,57,30.11,29.99,2,0,7,0.04
2012-7-5,74,60,45,56,51,44,99,74,46,30.05,30.01,2,0,6,0.00
2012-7-6,76,62,49,61,54,47,99,77,52,30.14,30.04,2,0,7,0.00
2012-7-7,78,64,50,63,55,48,93,74,52,30.17,30.04,3,1,8,0.00
2012-7-8,81,66,52,65,57,50,95,76,55,30.09,29.97,2,0,7,0.00
2012-7-9,77,64,54,64,57,52,95,80,61,30.12,30.02,2,0,6,0.00
2012-7-10,74,60,49,61,55,48,98,85,63,30.21,30.09,2,0,5,0.00
2012-7-11,78,65,54,65,58,53,99,80,55,30.11,29.98,3,0,6,0.00
2012-7-12,79,66,54,63,58,53,98,78,54,30.01,29.95,2,0,6,0.00
2012-7-13,67,62,56,64,60,55,99,93,80,30.04,29.97,1,0,4,0.15
2012-7-14,76,66,56,66,62,56,100,89,68,29.99,29.92,1,0,4,0.01
2012-7-15,65,60,56,62,57,54,98,89,68,29.96,29.89,3,1,14,0.09
2012-7-16,78,64,56,65,59,55,98,85,62,29.95,29.79,2,0,8,0.01
2012-7-17,75,67,59,66,62,56,98,85,68,29.92,29.80,2,0,6,0.00
2012-7-18,70,62,57,62,59,56,97,88,76,30.07,29.92,2,0,7,0.00
2012-7-19,78,66,57,67,60,55,95,82,63,30.07,29.91,3,0,7,0.00
2012-7-20,64,62,58,62,60,57,98,95,89,30.21,29.95,2,0,6,0.53
2012-7-21,74,64,55,63,58,53,97,84,59,30.22,30.08,2,0,5,0.01
2012-7-22,63,57,51,55,53,50,98,88,70,30.16,30.07,2,0,8,0.23
2012-7-23,64,55,50,59,53,49,98,92,75,30.27,30.16,1,0,7,0.25
2012-7-24,71,60,51,61,55,50,99,86,66,30.20,30.02,2,0,10,0.01
2012-7-25,78,64,52,67,59,52,100,85,63,30.04,29.93,2,0,6,0.00
2012-7-26,79,67,56,66,60,55,99,81,59,29.98,29.90,2,0,6,0.00
2012-7-27,64,59,54,59,57,53,98,93,81,30.12,29.94,1,0,5,0.01
2012-7-28,71,61,54,60,56,53,98,86,64,30.18,30.12,2,0,6,0.01
2012-7-29,71,61,52,61,56,51,99,84,64,30.19,30.11,2,0,7,0.00
2012-7-30,67,58,52,60,55,51,98,88,73,30.19,30.12,2,0,6,0.00
2012-7-31,71,60,52,59,54,51,96,83,60,30.20,30.16,3,0,8,0.00
2012-8-1,73,61,49,61,55,48,99,83,62,30.23,30.16,3,0,7,0.00
2012-8-2,70,60,52,61,56,50,97,86,69,30.20,30.13,2,0,8,0.00
2012-8-3,79,64,52,67,58,52,99,84,61,30.15,30.00,2,0,7,0.00
2012-8-4,89,72,58,70,63,57,99,76,45,30.01,29.84,2,0,7,0.00
2012-8-5,90,76,63,72,66,62,97,74,46,29.97,29.87,1,0,6,0.00
2012-8-6,80,68,60,67,62,58,94,82,62,30.10,29.97,2,0,5,0.00
2012-8-7,66,62,58,63,60,57,98,94,88,30.11,30.04,1,0,3,0.00
2012-8-8,69,62,55,62,58,54,98,87,65,30.24,30.07,2,0,6,0.01
2012-8-9,73,61,51,62,57,51,100,86,66,30.24,30.11,2,0,6,0.01
2012-8-10,75,63,52,64,57,51,99,83,55,30.16,30.06,2,0,7,0.01
2012-8-11,79,65,53,65,58,-100,100,82,54,30.10,29.99,2,0,6,0.00
2012-8-12,83,68,57,69,62,56,100,81,58,30.01,29.92,2,0,8,0.00
2012-8-13,81,67,58,68,60,50,100,79,52,30.03,29.97,2,0,6,0.00
2012-8-14,78,65,54,67,59,50,97,83,65,30.02,29.91,3,0,8,0.00
2012-8-15,84,67,55,67,59,55,99,79,47,29.98,29.87,2,0,6,0.00
2012-8-16,89,73,58,65,60,55,96,67,35,29.96,29.88,2,0,8,0.00
2012-8-17,89,74,59,69,62,58,96,71,44,29.98,29.91,1,0,5,0.00
2012-8-18,76,69,60,66,63,58,97,81,68,29.96,29.87,2,1,7,0.00
2012-8-19,68,62,57,63,60,55,99,94,81,30.05,29.95,1,0,3,0.06
2012-8-20,75,63,54,60,56,52,94,79,58,30.07,29.96,2,0,7,0.01
2012-8-21,68,60,52,59,55,51,98,84,68,30.06,29.97,2,0,6,0.01
2012-8-22,70,60,53,56,53,50,93,79,55,30.13,30.06,4,0,10,0.01
2012-8-23,65,57,51,56,50,46,93,80,57,30.14,30.07,2,0,8,0.00
2012-8-24,69,58,49,54,50,46,94,78,54,30.23,30.03,3,0,8,0.00
2012-8-25,78,60,47,59,53,46,99,79,48,30.04,29.75,3,0,5,0.00
2012-8-26,74,62,52,58,54,51,97,77,52,29.97,29.76,2,0,9,0.00
2012-8-27,74,63,54,57,53,49,95,71,42,30.07,29.96,2,0,10,0.00
2012-8-28,71,60,53,55,52,47,93,77,44,30.08,30.02,2,0,7,0.00
2012-8-29,69,60,53,58,54,51,94,82,59,30.16,30.07,2,0,6,0.00
2012-8-30,71,60,51,57,53,49,98,82,56,30.08,29.91,2,0,6,0.00
2012-8-31,69,56,46,57,51,45,99,83,58,30.02,29.94,2,0,8,0.00
2012-9-1,71,57,46,56,50,45,98,81,54,30.16,30.01,2,0,5,0.00
2012-9-2,69,57,48,55,50,47,96,78,55,30.22,30.15,3,0,6,0.00
2012-9-3,70,57,47,58,51,46,99,83,58,30.20,30.13,2,0,8,0.00
2012-9-4,74,60,48,60,54,47,99,82,59,30.23,30.13,2,0,8,0.00
2012-9-5,76,62,51,62,56,51,99,81,57,30.13,29.95,3,0,7,0.00
2012-9-6,79,63,51,62,55,51,99,77,46,30.08,29.97,2,0,8,0.00
2012-9-7,85,68,53,58,54,50,96,66,33,30.15,30.03,3,0,6,0.00
2012-9-8,83,68,55,60,54,45,86,62,35,30.06,29.90,2,0,5,0.00
2012-9-9,62,58,55,56,54,51,95,86,68,30.03,29.96,2,0,7,0.07
2012-9-10,63,54,46,55,49,42,99,85,58,30.25,29.96,2,0,9,0.42
2012-9-11,65,53,44,51,46,42,95,76,52,30.34,30.24,3,1,9,0.01
2012-9-12,70,53,41,55,47,40,99,81,49,30.39,30.26,2,0,7,0.00
2012-9-13,79,60,45,57,50,44,98,74,36,30.27,30.07,2,0,4,0.00
2012-9-14,77,62,50,57,52,47,95,73,45,30.10,30.03,2,0,5,0.00
2012-9-15,73,59,50,58,53,49,99,82,54,30.19,30.06,2,0,5,0.00
2012-9-16,72,59,49,60,54,49,99,85,60,30.23,30.14,2,0,6,0.00
2012-9-17,78,62,51,60,55,51,100,81,49,30.14,30.02,2,0,4,0.00
2012-9-18,79,64,53,62,56,52,99,79,47,30.08,30.02,1,0,4,0.00
2012-9-19,75,60,50,61,55,49,99,85,53,30.17,30.07,2,0,4,0.01
2012-9-20,73,58,48,61,54,48,99,87,61,30.12,30.03,3,0,4,0.01
2012-9-21,59,56,53,56,54,52,98,95,88,30.16,30.11,1,0,3,0.03
2012-9-22,61,55,49,55,52,-100,99,93,75,30.18,30.14,2,0,7,0.02
2012-9-23,66,53,45,55,50,45,100,91,66,30.18,30.13,2,0,4,0.01
2012-9-24,67,56,48,56,52,48,100,86,61,30.16,30.11,2,0,5,0.01
2012-9-25,62,54,49,55,52,48,99,91,73,30.16,30.11,2,0,4,0.01
2012-9-26,64,54,45,56,50,45,100,91,70,30.15,30.07,1,0,5,0.00
2012-9-27,69,56,47,59,53,47,100,90,68,30.09,29.97,2,0,4,0.01
2012-9-28,70,59,52,61,56,52,100,90,65,30.03,29.95,1,0,3,0.04
2012-9-29,65,56,48,57,52,46,98,86,68,30.32,30.03,1,0,5,0.01
2012-9-30,65,52,42,53,47,42,100,84,52,30.42,30.32,2,0,5,0.01
2012-10-1,72,57,45,60,52,44,99,85,52,30.39,30.14,2,0,8,0.01
2012-10-2,61,50,41,48,41,32,98,74,33,30.31,30.16,2,0,9,0.00
2012-10-3,63,48,36,41,38,34,98,72,36,30.42,30.30,2,0,6,0.00
2012-10-4,63,49,37,43,39,34,94,71,41,30.33,30.27,1,0,6,0.00
2012-10-5,67,51,38,45,38,34,93,67,30,30.33,30.23,2,0,5,0.00
2012-10-6,69,53,40,44,38,33,86,61,29,30.27,30.14,1,0,4,0.00
2012-10-7,71,54,42,49,44,38,93,72,37,30.14,29.95,1,0,3,0.00
2012-10-8,69,54,44,49,46,42,96,76,42,30.04,29.95,1,0,5,0.00
2012-10-9,52,48,44,50,46,44,99,96,90,30.15,30.04,0,0,2,0.00
2012-10-10,51,47,40,49,46,40,100,97,92,30.07,30.01,0,0,2,0.01
2012-10-11,55,48,44,50,46,44,99,93,80,30.03,29.81,1,0,5,0.01
2012-10-12,54,50,42,53,49,42,100,98,93,30.01,29.83,2,0,12,0.21
2012-10-13,58,55,52,57,54,51,99,97,92,30.15,30.01,3,1,12,0.68
2012-10-14,59,57,56,58,56,55,99,98,95,30.14,29.89,2,0,6,1.26
2012-10-15,60,56,50,60,55,50,100,97,83,29.96,29.52,3,1,13,0.61
2012-10-16,59,50,44,58,48,43,99,93,76,30.30,29.56,2,0,10,0.85
2012-10-17,55,47,41,48,45,41,100,91,68,30.37,30.24,1,0,3,0.01
2012-10-18,58,50,44,53,48,43,99,91,76,30.24,29.81,2,0,6,0.86
2012-10-19,58,51,43,57,50,43,99,98,92,29.84,29.77,4,1,16,2.13
2012-10-20,46,42,39,44,41,39,99,96,91,29.92,29.80,1,0,7,0.75
2012-10-21,49,41,35,44,40,35,99,94,76,29.91,29.82,2,0,8,0.31
2012-10-22,44,39,34,44,39,34,100,99,97,29.82,29.58,1,0,3,0.36
2012-10-23,48,43,40,46,42,39,99,96,84,29.90,29.68,2,0,6,0.26
2012-10-24,48,42,37,46,41,36,100,98,91,30.20,29.88,1,0,4,0.19
2012-10-25,50,44,40,45,42,40,100,95,77,30.44,30.19,1,0,4,0.01
2012-10-26,48,44,41,47,43,39,99,96,85,30.36,30.06,1,0,4,0.16
2012-10-27,53,49,48,53,48,47,100,98,96,30.06,29.79,1,0,7,0.42
2012-10-28,57,54,51,56,53,51,100,98,90,29.96,29.78,2,0,9,0.67
2012-10-29,59,56,51,57,54,51,100,94,80,30.02,29.72,4,1,23,0.32
2012-10-30,57,55,52,57,54,52,100,99,95,29.99,29.78,1,0,6,0.91
2012-10-31,57,54,51,57,54,51,100,99,97,29.79,29.63,2,0,5,0.98
2012-11-1,54,51,50,53,51,49,100,99,95,30.04,29.74,1,0,6,0.36
2012-11-2,59,53,49,57,52,49,100,97,83,30.06,29.98,0,0,3,0.15
2012-11-3,56,53,50,55,52,50,100,98,95,30.20,29.98,2,0,9,0.32
2012-11-4,60,56,51,59,56,51,100,99,94,30.31,30.20,2,0,10,0.57
2012-11-5,56,49,44,55,49,43,100,98,91,30.41,30.20,1,0,10,0.52
2012-11-6,54,48,43,53,47,43,100,97,86,30.20,29.96,3,0,12,0.07
2012-11-7,48,42,35,48,42,35,100,98,92,30.16,29.98,1,0,4,1.02
2012-11-8,43,36,32,41,36,32,100,98,87,29.98,29.84,2,0,3,0.02
2012-11-9,42,34,31,39,34,31,100,97,83,29.98,29.87,1,0,3,0.01
2012-11-10,38,33,29,36,32,29,100,95,76,30.26,29.98,1,0,4,0.01
2012-11-11,42,38,31,42,36,29,100,95,80,30.28,30.11,1,0,5,0.43
2012-11-12,47,45,41,47,45,41,100,99,99,30.24,30.11,1,0,4,0.40
2012-11-13,49,46,45,48,46,45,100,99,96,30.24,30.16,1,0,4,0.75
2012-11-14,49,44,36,48,43,-100,100,99,95,30.34,30.19,0,0,2,0.15
2012-11-15,45,38,33,45,38,33,100,100,97,30.31,29.97,1,0,1,0.01
2012-11-16,47,41,34,46,40,34,100,98,89,29.97,29.75,1,0,8,0.29
2012-11-17,53,46,40,47,44,39,100,94,76,29.77,29.48,3,1,10,0.52
2012-11-18,46,43,41,45,42,40,99,97,96,29.80,29.57,3,1,11,0.77
2012-11-19,51,48,45,50,47,44,100,98,92,29.71,29.39,3,1,17,1.94
2012-11-20,48,45,42,47,45,42,100,98,94,29.72,29.54,2,0,9,0.47
2012-11-21,43,41,37,43,41,37,100,98,94,30.32,29.53,2,1,11,0.58
2012-11-22,45,41,37,43,39,37,100,96,81,30.40,30.22,2,0,6,0.01
2012-11-23,48,46,42,48,45,38,100,97,76,30.25,30.06,2,0,6,0.68
2012-11-24,45,40,34,45,40,34,100,100,95,30.29,30.15,1,0,6,0.15
2012-11-25,41,36,32,40,36,31,100,100,97,30.38,30.26,1,0,4,0.02
2012-11-26,43,35,30,39,33,30,100,96,76,30.27,30.09,1,0,2,0.01
2012-11-27,48,40,33,41,37,32,99,89,70,30.12,29.93,1,0,4,0.01
2012-11-28,48,43,38,46,42,36,99,95,79,29.93,29.65,1,0,7,0.15
2012-11-29,51,48,45,48,46,44,99,96,78,29.75,29.47,3,0,10,0.38
2012-11-30,50,47,44,49,46,44,100,98,92,29.50,29.39,2,0,8,1.35
2012-12-1,47,45,42,46,44,41,99,97,89,29.66,29.33,3,1,10,1.26
2012-12-2,45,44,43,44,43,42,100,98,94,29.80,29.21,3,1,12,0.76
2012-12-3,46,44,43,45,44,42,99,98,95,30.03,29.65,2,0,9,0.42
2012-12-4,50,46,43,50,46,42,100,98,92,29.81,29.56,3,1,10,0.65
2012-12-5,44,41,37,43,39,37,100,93,84,30.22,29.81,2,0,9,0.17
2012-12-6,42,39,37,41,37,-100,100,97,96,30.20,30.07,1,0,6,0.54
2012-12-7,43,39,34,43,38,34,100,99,96,30.16,29.96,1,0,9,0.26
2012-12-8,38,34,33,37,34,33,100,99,95,30.39,30.15,0,0,3,0.48
2012-12-9,40,36,33,40,36,33,100,100,99,30.41,30.32,1,0,3,0.66
2012-12-10,42,39,38,42,39,38,100,100,100,30.45,30.14,1,0,2,0.21
2012-12-11,42,40,39,41,40,38,100,99,97,30.14,29.59,1,0,7,0.72
2012-12-12,40,38,35,40,38,34,100,100,99,30.06,29.63,1,0,5,1.08
2012-12-13,41,37,34,40,37,34,100,98,93,30.07,29.83,1,0,5,0.26
2012-12-14,39,35,31,39,35,31,100,100,98,29.97,29.82,1,0,4,0.66
2012-12-15,38,33,31,36,33,31,100,98,90,29.96,29.57,2,0,11,0.31
2012-12-16,40,36,34,39,36,34,100,99,98,29.77,29.03,3,1,14,1.00
2012-12-17,43,37,33,43,37,33,100,99,98,29.90,28.99,3,0,13,1.09
2012-12-18,34,33,33,34,33,33,100,100,99,30.01,29.90,1,0,5,0.01
2012-12-19,37,35,33,37,35,32,99,99,97,30.00,29.61,3,1,12,1.66
2012-12-20,40,38,33,40,38,33,100,99,98,29.85,29.56,2,0,12,1.54
2012-12-21,41,35,30,40,35,30,100,99,93,29.85,29.71,2,0,4,0.02
2012-12-22,44,39,36,43,39,36,100,97,91,29.77,29.53,2,0,9,0.28
2012-12-23,43,39,36,42,38,36,99,97,93,29.83,29.64,2,0,10,0.23
2012-12-24,41,37,34,41,37,34,100,100,99,30.19,29.83,0,0,3,0.29
2012-12-25,41,37,34,38,36,34,100,93,77,30.10,29.69,3,0,14,0.13
2012-12-26,42,39,36,41,38,35,99,97,93,29.94,29.73,2,0,9,0.39
2012-12-27,41,39,37,41,39,37,100,100,99,30.19,29.93,1,0,5,0.44
2012-12-28,43,38,34,42,38,34,100,99,93,30.20,30.14,1,0,2,0.02
2012-12-29,38,36,34,38,36,34,100,99,97,30.26,30.18,1,0,2,0.20
2012-12-30,37,33,30,37,33,30,100,100,100,30.35,30.25,0,0,2,0.01
2012-12-31,36,32,29,36,32,29,100,100,99,30.49,30.28,0,0,4,0.01
2013-1-1,36,31,27,36,31,27,100,100,98,30.53,30.39,1,0,2,0.00